createdAt,value
2019-03-28T00:00:13.080Z,7.78
2019-03-28T00:02:42.446Z,8.00
2019-03-28T00:05:11.808Z,8.03
2019-03-28T00:07:41.186Z,7.67
2019-03-28T00:10:10.693Z,7.37
2019-03-28T00:12:40.195Z,8.15
2019-03-28T00:15:10.265Z,7.92
2019-03-28T00:17:39.650Z,7.83
2019-03-28T00:20:11.049Z,7.90
2019-03-28T00:22:48.442Z,7.35
2019-03-28T00:25:19.468Z,8.43
2019-03-28T00:27:48.833Z,7.17
2019-03-28T00:30:19.816Z,7.53
2019-03-28T00:32:49.230Z,7.60
2019-03-28T00:35:18.599Z,9.07
2019-03-28T00:37:48.312Z,7.62
2019-03-28T00:40:17.683Z,7.70
2019-03-28T00:42:47.314Z,8.73
2019-03-28T00:45:17.502Z,8.98
2019-03-28T00:47:46.841Z,8.50
2019-03-28T00:50:16.755Z,8.50
2019-03-28T00:52:46.132Z,11.40
2019-03-28T00:55:15.502Z,8.83
2019-03-28T00:57:44.862Z,9.10
2019-03-28T01:00:15.245Z,8.67
2019-03-28T01:02:44.616Z,8.03
2019-03-28T01:05:14.814Z,8.63
2019-03-28T01:07:44.856Z,8.63
2019-03-28T01:10:15.263Z,7.77
2019-03-28T01:12:44.627Z,8.23
2019-03-28T01:15:14.018Z,8.48
2019-03-28T01:17:43.380Z,7.85
2019-03-28T01:20:13.258Z,8.20
2019-03-28T01:22:42.630Z,8.80
2019-03-28T01:25:12.072Z,9.50
2019-03-28T01:27:41.438Z,8.98
2019-03-28T01:30:11.949Z,10.08
2019-03-28T01:32:41.311Z,9.20
2019-03-28T01:35:10.681Z,9.53
2019-03-28T01:37:40.070Z,10.40
2019-03-28T01:40:09.909Z,10.16
2019-03-28T01:42:39.303Z,10.93
2019-03-28T01:45:09.873Z,10.08
2019-03-28T01:47:39.311Z,9.75
2019-03-28T01:50:09.496Z,11.80
2019-03-28T01:52:38.895Z,10.58
2019-03-28T01:55:09.264Z,10.70
2019-03-28T01:57:39.407Z,10.98
2019-03-28T02:00:12.337Z,12.05
2019-03-28T02:02:41.821Z,11.68
2019-03-28T02:05:11.192Z,10.08
2019-03-28T02:07:41.280Z,9.48
2019-03-28T02:10:10.997Z,10.35
2019-03-28T02:12:40.416Z,11.53
2019-03-28T02:15:10.645Z,10.75
2019-03-28T02:17:40.084Z,10.68
2019-03-28T02:20:10.601Z,10.93
2019-03-28T02:22:39.973Z,10.13
2019-03-28T02:25:10.746Z,9.43
2019-03-28T02:27:40.118Z,10.30
2019-03-28T02:30:10.597Z,10.82
2019-03-28T02:32:39.973Z,13.43
2019-03-28T02:35:10.387Z,11.15
2019-03-28T02:37:39.750Z,12.73
2019-03-28T02:40:09.251Z,9.85
2019-03-28T02:42:39.259Z,10.85
2019-03-28T02:45:09.441Z,10.38
2019-03-28T02:47:38.820Z,11.35
2019-03-28T02:50:10.058Z,12.28
2019-03-28T02:52:39.459Z,11.97
2019-03-28T02:55:09.887Z,11.14
2019-03-28T02:57:42.295Z,9.98
2019-03-28T03:00:11.015Z,10.38
2019-03-28T03:02:40.362Z,10.80
2019-03-28T03:05:10.352Z,11.33
2019-03-28T03:07:40.234Z,11.40
2019-03-28T03:10:11.662Z,9.95
2019-03-28T03:12:41.039Z,10.72
2019-03-28T03:15:11.524Z,10.32
2019-03-28T03:17:41.547Z,10.98
2019-03-28T03:20:11.857Z,10.68
2019-03-28T03:22:41.811Z,10.75
2019-03-28T03:25:11.500Z,11.90
2019-03-28T03:27:56.274Z,11.33
2019-03-28T03:30:12.654Z,10.58
2019-03-28T03:32:42.212Z,11.25
2019-03-28T03:35:12.359Z,11.88
2019-03-28T03:37:42.531Z,11.43
2019-03-28T03:40:12.215Z,11.57
2019-03-28T03:42:41.589Z,11.40
2019-03-28T03:45:12.373Z,11.12
2019-03-28T03:47:41.771Z,11.40
2019-03-28T03:50:14.283Z,11.10
2019-03-28T03:52:44.183Z,11.38
2019-03-28T03:55:13.557Z,11.67
2019-03-28T03:57:42.936Z,11.25
2019-03-28T04:00:15.661Z,10.70
2019-03-28T04:02:45.037Z,11.75
2019-03-28T04:05:14.408Z,12.90
2019-03-28T04:07:43.802Z,11.10
2019-03-28T04:10:13.578Z,12.60
2019-03-28T04:12:42.915Z,14.63
2019-03-28T04:15:13.269Z,10.60
2019-03-28T04:17:42.655Z,12.82
2019-03-28T04:20:12.026Z,10.88
2019-03-28T04:22:41.578Z,11.25
2019-03-28T04:25:10.967Z,11.63
2019-03-28T04:27:40.341Z,11.83
2019-03-28T04:30:10.710Z,10.98
2019-03-28T04:32:40.088Z,11.08
2019-03-28T04:35:09.522Z,10.98
2019-03-28T04:37:38.933Z,11.08
2019-03-28T04:40:09.001Z,11.88
2019-03-28T04:42:38.384Z,11.50
2019-03-28T04:45:08.706Z,12.18
2019-03-28T04:47:38.392Z,11.70
2019-03-28T04:50:10.395Z,9.98
2019-03-28T04:52:40.593Z,10.43
2019-03-28T04:55:10.900Z,11.48
2019-03-28T04:57:41.214Z,12.28
2019-03-28T05:00:12.044Z,11.18
2019-03-28T05:02:41.413Z,11.45
2019-03-28T05:05:10.886Z,13.10
2019-03-28T05:07:40.265Z,10.75
2019-03-28T05:10:10.945Z,10.58
2019-03-28T05:12:40.408Z,10.90
2019-03-28T05:15:10.642Z,10.68
2019-03-28T05:17:40.577Z,11.78
2019-03-28T05:20:13.253Z,11.53
2019-03-28T05:22:42.404Z,11.65
2019-03-28T05:25:11.865Z,11.65
2019-03-28T05:27:41.209Z,11.15
2019-03-28T05:30:12.114Z,11.28
2019-03-28T05:32:41.526Z,10.45
2019-03-28T05:35:11.747Z,10.15
2019-03-28T05:37:41.117Z,10.72
2019-03-28T05:40:11.077Z,10.03
2019-03-28T05:42:40.655Z,10.15
2019-03-28T05:45:10.104Z,9.75
2019-03-28T05:47:39.480Z,10.75
2019-03-28T05:50:09.748Z,11.93
2019-03-28T05:52:39.470Z,10.80
2019-03-28T05:55:08.973Z,10.50
2019-03-28T05:57:38.345Z,9.95
2019-03-28T06:00:10.193Z,10.80
2019-03-28T06:02:39.533Z,10.70
2019-03-28T06:05:10.472Z,11.70
2019-03-28T06:07:40.186Z,10.23
2019-03-28T06:10:10.451Z,11.20
2019-03-28T06:12:40.259Z,10.72
2019-03-28T06:15:10.654Z,10.80
2019-03-28T06:17:39.986Z,10.43
2019-03-28T06:20:10.437Z,10.23
2019-03-28T06:22:39.887Z,10.70
2019-03-28T06:25:10.029Z,10.06
2019-03-28T06:27:39.377Z,9.88
2019-03-28T06:30:11.937Z,9.08
2019-03-28T06:32:43.152Z,9.65
2019-03-28T06:35:12.741Z,9.25
2019-03-28T06:37:42.126Z,11.35
2019-03-28T06:40:11.909Z,10.18
2019-03-28T06:42:41.285Z,10.70
2019-03-28T06:45:10.727Z,9.83
2019-03-28T06:47:40.092Z,10.90
2019-03-28T06:50:10.240Z,11.18
2019-03-28T06:52:40.638Z,9.20
2019-03-28T06:55:10.517Z,9.30
2019-03-28T06:57:39.886Z,9.13
2019-03-28T07:00:13.384Z,12.15
2019-03-28T07:02:43.449Z,11.22
2019-03-28T07:05:14.017Z,9.87
2019-03-28T07:07:43.985Z,11.40
2019-03-28T07:10:13.962Z,10.10
2019-03-28T07:12:44.288Z,10.38
2019-03-28T07:15:14.231Z,11.17
2019-03-28T07:17:43.600Z,9.73
2019-03-28T07:20:13.502Z,9.60
2019-03-28T07:22:45.840Z,12.07
2019-03-28T07:25:14.007Z,9.85
2019-03-28T07:27:43.561Z,9.95
2019-03-28T07:30:15.677Z,10.60
2019-03-28T07:32:45.039Z,9.90
2019-03-28T07:35:14.552Z,9.88
2019-03-28T07:37:43.942Z,13.00
2019-03-28T07:40:14.220Z,9.93
2019-03-28T07:42:43.595Z,12.28
2019-03-28T07:45:13.881Z,9.27
2019-03-28T07:47:43.323Z,13.28
2019-03-28T07:50:13.506Z,11.18
2019-03-28T07:52:43.686Z,10.50
2019-03-28T07:55:16.514Z,10.53
2019-03-28T07:57:45.362Z,10.68
2019-03-28T08:00:15.351Z,10.73
2019-03-28T08:02:44.785Z,15.18
2019-03-28T08:05:15.161Z,10.88
2019-03-28T08:07:45.881Z,11.48
2019-03-28T08:10:16.506Z,11.77
2019-03-28T08:12:45.916Z,12.15
2019-03-28T08:15:16.295Z,10.77
2019-03-28T08:17:45.669Z,10.68
2019-03-28T08:20:15.586Z,11.63
2019-03-28T08:22:44.999Z,11.03
2019-03-28T08:25:15.401Z,11.17
2019-03-28T08:27:44.757Z,11.38
2019-03-28T08:30:18.599Z,16.25
2019-03-28T08:32:45.815Z,10.88
2019-03-28T08:35:15.590Z,11.60
2019-03-28T08:37:45.622Z,11.45
2019-03-28T08:40:22.262Z,11.73
2019-03-28T08:42:51.643Z,11.35
2019-03-28T08:45:21.012Z,11.08
2019-03-28T08:47:50.392Z,14.78
2019-03-28T08:50:20.327Z,12.33
2019-03-28T08:52:51.372Z,9.73
2019-03-28T08:55:20.762Z,9.87
2019-03-28T08:57:50.162Z,12.65
2019-03-28T09:00:32.153Z,11.97
2019-03-28T09:02:50.799Z,10.23
2019-03-28T09:05:20.171Z,9.75
2019-03-28T09:07:49.572Z,10.63
2019-03-28T09:10:18.931Z,10.27
2019-03-28T09:12:48.500Z,10.53
2019-03-28T09:15:17.943Z,11.17
2019-03-28T09:17:47.313Z,11.33
2019-03-28T09:20:16.931Z,11.33
2019-03-28T09:22:46.300Z,9.98
2019-03-28T09:25:15.683Z,10.87
2019-03-28T09:27:45.079Z,11.12
2019-03-28T09:30:17.029Z,9.57
2019-03-28T09:32:47.001Z,10.55
2019-03-28T09:35:29.763Z,9.97
2019-03-28T09:37:59.086Z,9.38
2019-03-28T09:40:29.996Z,8.05
2019-03-28T09:42:59.381Z,9.05
2019-03-28T09:45:28.753Z,7.47
2019-03-28T09:47:58.130Z,11.08
2019-03-28T09:50:27.525Z,8.80
2019-03-28T09:52:56.995Z,10.60
2019-03-28T09:55:26.368Z,10.13
2019-03-28T09:57:56.354Z,13.98
2019-03-28T10:00:26.174Z,11.22
2019-03-28T10:02:55.545Z,12.85
2019-03-28T10:05:24.939Z,11.03
2019-03-28T10:07:54.298Z,9.80
2019-03-28T10:10:23.752Z,8.70
2019-03-28T10:12:53.125Z,7.70
2019-03-28T10:15:22.500Z,9.60
2019-03-28T10:17:51.872Z,8.90
2019-03-28T10:20:21.571Z,8.40
2019-03-28T10:22:50.967Z,9.68
2019-03-28T10:25:20.315Z,9.10
2019-03-28T10:27:49.699Z,8.90
2019-03-28T10:30:23.734Z,10.30
2019-03-28T10:32:53.134Z,9.30
2019-03-28T10:35:28.957Z,8.70
2019-03-28T10:37:58.393Z,8.00
2019-03-28T10:40:27.824Z,10.07
2019-03-28T10:42:57.247Z,8.78
2019-03-28T10:45:26.680Z,8.03
2019-03-28T10:47:56.341Z,9.60
2019-03-28T10:50:39.896Z,9.63
2019-03-28T10:52:57.443Z,8.93
2019-03-28T10:55:26.801Z,8.58
2019-03-28T10:57:56.358Z,8.40
2019-03-28T11:00:25.921Z,7.10
2019-03-28T11:02:55.820Z,7.30
2019-03-28T11:05:25.434Z,8.47
2019-03-28T11:07:54.801Z,8.43
2019-03-28T11:10:24.219Z,8.90
2019-03-28T11:12:53.606Z,9.53
2019-03-28T11:15:22.986Z,9.83
2019-03-28T11:17:52.381Z,9.13
2019-03-28T11:20:22.219Z,10.30
2019-03-28T11:22:51.591Z,8.30
2019-03-28T11:25:21.036Z,7.12
2019-03-28T11:27:50.426Z,7.50
2019-03-28T11:30:20.240Z,8.47
2019-03-28T11:32:49.891Z,8.30
2019-03-28T11:35:19.299Z,7.28
2019-03-28T11:37:48.670Z,6.20
2019-03-28T11:40:18.116Z,7.47
2019-03-28T11:42:48.100Z,6.10
2019-03-28T11:45:17.506Z,6.47
2019-03-28T11:47:46.868Z,7.55
2019-03-28T11:50:17.779Z,7.53
2019-03-28T11:52:47.149Z,7.95
2019-03-28T11:55:16.569Z,7.53
2019-03-28T11:57:45.948Z,6.42
2019-03-28T12:00:17.777Z,7.03
2019-03-28T12:02:47.132Z,6.72
2019-03-28T12:05:17.151Z,5.33
2019-03-28T12:07:46.533Z,6.47
2019-03-28T12:10:16.561Z,6.78
2019-03-28T12:12:45.965Z,8.78
2019-03-28T12:15:15.515Z,6.10
2019-03-28T12:17:44.902Z,7.53
2019-03-28T12:20:15.137Z,6.10
2019-03-28T12:22:44.523Z,7.10
2019-03-28T12:25:14.232Z,7.33
2019-03-28T12:27:44.064Z,7.90
2019-03-28T12:30:16.217Z,7.10
2019-03-28T12:32:45.870Z,7.42
2019-03-28T12:35:15.327Z,8.37
2019-03-28T12:37:44.709Z,6.47
2019-03-28T12:40:14.619Z,6.45
2019-03-28T12:42:44.046Z,6.05
2019-03-28T12:45:15.222Z,8.27
2019-03-28T12:47:44.599Z,7.35
2019-03-28T12:50:17.387Z,6.33
2019-03-28T12:52:46.783Z,7.45
2019-03-28T12:55:16.721Z,7.40
2019-03-28T12:57:48.399Z,7.37
2019-03-28T13:00:19.088Z,8.10
2019-03-28T13:02:48.456Z,7.40
2019-03-28T13:05:17.883Z,7.20
2019-03-28T13:07:47.307Z,7.22
2019-03-28T13:10:16.746Z,8.63
2019-03-28T13:12:46.129Z,8.58
2019-03-28T13:15:15.648Z,8.80
2019-03-28T13:17:45.021Z,9.23
2019-03-28T13:20:14.686Z,6.83
2019-03-28T13:22:44.053Z,8.75
2019-03-28T13:27:42.843Z,7.03
2019-03-28T13:30:14.325Z,10.50
2019-03-28T13:32:43.682Z,7.70
2019-03-28T13:35:13.193Z,6.64
2019-03-28T13:37:42.815Z,7.15
2019-03-28T13:40:13.426Z,8.13
2019-03-28T13:42:42.818Z,7.65
2019-03-28T13:45:15.005Z,7.17
2019-03-28T13:47:44.376Z,7.70
2019-03-28T13:50:15.627Z,7.53
2019-03-28T13:52:44.999Z,7.70
2019-03-28T13:55:14.378Z,7.50
2019-03-28T13:57:43.764Z,7.78
2019-03-28T14:00:13.565Z,9.77
2019-03-28T14:02:55.577Z,6.03
2019-03-28T14:05:14.414Z,10.77
2019-03-28T14:07:43.773Z,9.15
2019-03-28T14:10:15.285Z,8.14
2019-03-28T14:12:44.930Z,9.95
2019-03-28T14:15:14.374Z,9.43
2019-03-28T14:17:43.735Z,8.63
2019-03-28T14:20:14.542Z,9.30
2019-03-28T14:22:43.897Z,7.83
2019-03-28T14:25:13.268Z,7.77
2019-03-28T14:27:42.654Z,9.13
2019-03-28T14:30:12.761Z,8.80
2019-03-28T14:32:52.521Z,7.67
2019-03-28T14:35:13.352Z,7.60
2019-03-28T14:37:42.964Z,6.10
2019-03-28T14:40:12.638Z,7.45
2019-03-28T14:42:42.022Z,10.50
2019-03-28T14:45:12.018Z,7.45
2019-03-28T14:47:41.423Z,8.15
2019-03-28T14:50:12.081Z,7.05
2019-03-28T14:52:41.422Z,8.10
2019-03-28T14:55:10.995Z,8.28
2019-03-28T14:57:41.517Z,8.70
2019-03-28T15:00:46.521Z,6.50
2019-03-28T15:03:25.106Z,7.28
2019-03-28T15:05:46.063Z,8.20
2019-03-28T15:08:15.431Z,7.08
2019-03-28T15:10:44.818Z,7.60
2019-03-28T15:13:14.478Z,8.00
2019-03-28T15:15:43.862Z,6.78
2019-03-28T15:18:13.597Z,7.40
2019-03-28T15:20:42.972Z,6.67
2019-03-28T15:23:12.349Z,6.47
2019-03-28T15:25:41.718Z,6.97
2019-03-28T15:28:11.244Z,8.78
2019-03-28T15:30:40.622Z,8.33
2019-03-28T15:33:10.004Z,8.88
2019-03-28T15:35:39.379Z,7.72
2019-03-28T15:38:08.777Z,8.40
2019-03-28T15:40:38.451Z,8.10
2019-03-28T15:43:07.822Z,7.97
2019-03-28T15:45:37.197Z,8.45
2019-03-28T15:48:06.652Z,8.68
2019-03-28T15:50:36.022Z,7.60
2019-03-28T15:53:05.407Z,7.97
2019-03-28T15:55:34.789Z,9.85
2019-03-28T15:58:04.154Z,11.15
2019-03-28T16:00:33.528Z,9.90
2019-03-28T16:03:03.013Z,8.93
2019-03-28T16:05:32.394Z,11.73
2019-03-28T16:08:01.906Z,12.25
2019-03-28T16:10:31.311Z,10.85
2019-03-28T16:13:00.751Z,9.85
2019-03-28T16:15:30.405Z,10.63
2019-03-28T16:17:59.801Z,9.35
2019-03-28T16:20:29.181Z,11.05
2019-03-28T16:22:58.597Z,10.95
2019-03-28T16:25:28.377Z,9.07
2019-03-28T16:27:57.739Z,8.70
2019-03-28T16:30:38.443Z,8.58
2019-03-28T16:33:08.220Z,8.08
2019-03-28T16:35:37.669Z,8.10
2019-03-28T16:38:07.087Z,8.05
2019-03-28T16:40:36.523Z,6.12
2019-03-28T16:43:05.958Z,7.65
2019-03-28T16:45:35.909Z,7.70
2019-03-28T16:48:05.315Z,9.48
2019-03-28T16:50:34.696Z,7.35
2019-03-28T16:53:04.140Z,7.12
2019-03-28T16:55:33.518Z,6.72
2019-03-28T16:58:02.933Z,8.38
2019-03-28T17:00:36.182Z,7.15
2019-03-28T17:03:07.350Z,6.40
2019-03-28T17:05:37.275Z,7.95
2019-03-28T17:08:07.338Z,6.60
2019-03-28T17:10:48.696Z,8.08
2019-03-28T17:13:18.321Z,8.88
2019-03-28T17:15:47.813Z,9.18
2019-03-28T17:18:18.810Z,5.92
2019-03-28T17:20:48.547Z,6.55
2019-03-28T17:23:17.913Z,6.75
2019-03-28T17:25:47.359Z,6.50
2019-03-28T17:28:17.101Z,6.37
2019-03-28T17:30:46.471Z,8.68
2019-03-28T17:33:17.985Z,5.85
2019-03-28T17:35:47.722Z,5.60
2019-03-28T17:38:17.381Z,6.95
2019-03-28T17:40:46.764Z,8.05
2019-03-28T17:43:16.228Z,7.30
2019-03-28T17:45:45.588Z,7.57
2019-03-28T17:48:15.037Z,6.03
2019-03-28T17:50:44.711Z,8.23
2019-03-28T17:53:14.128Z,6.55
2019-03-28T17:55:43.576Z,5.45
2019-03-28T17:58:12.943Z,6.97
2019-03-28T18:00:43.954Z,7.28
2019-03-28T18:03:13.388Z,7.72
2019-03-28T18:05:42.933Z,6.72
2019-03-28T18:08:12.383Z,7.03
2019-03-28T18:10:41.750Z,7.58
2019-03-28T18:13:11.246Z,6.72
2019-03-28T18:15:41.396Z,7.90
2019-03-28T18:18:12.066Z,6.67
2019-03-28T18:20:41.825Z,7.08
2019-03-28T18:23:11.198Z,7.42
2019-03-28T18:25:40.593Z,8.58
2019-03-28T18:28:10.046Z,7.95
2019-03-28T18:30:39.426Z,7.12
2019-03-28T18:33:08.791Z,8.35
2019-03-28T18:35:38.321Z,8.83
2019-03-28T18:38:07.761Z,8.10
2019-03-28T18:40:37.154Z,8.03
2019-03-28T18:43:06.541Z,8.70
2019-03-28T18:45:35.927Z,9.00
2019-03-28T18:48:08.730Z,9.68
2019-03-28T18:50:36.397Z,9.07
2019-03-28T18:53:05.769Z,9.73
2019-03-28T18:55:35.147Z,20.50
2019-03-28T18:58:05.633Z,10.53
2019-03-28T19:00:35.253Z,8.78
2019-03-28T19:03:04.615Z,8.73
2019-03-28T19:05:33.999Z,7.03
2019-03-28T19:08:03.443Z,13.10
2019-03-28T19:10:32.812Z,9.45
2019-03-28T19:13:04.738Z,8.58
2019-03-28T19:15:33.287Z,8.15
2019-03-28T19:18:02.657Z,8.50
2019-03-28T19:20:33.323Z,9.60
2019-03-28T19:23:02.731Z,8.95
2019-03-28T19:25:32.140Z,11.85
2019-03-28T19:28:01.542Z,10.70
2019-03-28T19:30:33.365Z,9.03
2019-03-28T19:33:02.907Z,10.58
2019-03-28T19:35:34.915Z,9.63
2019-03-28T19:38:04.675Z,9.30
2019-03-28T19:40:34.136Z,10.40
2019-03-28T19:43:03.753Z,10.00
2019-03-28T19:45:37.150Z,9.48
2019-03-28T19:48:07.119Z,9.45
2019-03-28T19:50:36.978Z,10.95
2019-03-28T19:53:06.519Z,7.33
2019-03-28T19:55:35.885Z,7.97
2019-03-28T19:58:06.099Z,12.28
2019-03-28T20:00:35.472Z,9.90
2019-03-28T20:03:04.979Z,12.30
2019-03-28T20:05:46.742Z,9.53
2019-03-28T20:08:15.589Z,7.85
2019-03-28T20:10:37.053Z,10.08
2019-03-28T20:13:06.734Z,7.95
2019-03-28T20:15:36.112Z,9.73
2019-03-28T20:18:05.477Z,10.13
2019-03-28T20:20:34.929Z,12.10
2019-03-28T20:23:05.772Z,10.30
2019-03-28T20:25:35.224Z,7.78
2019-03-28T20:28:04.611Z,9.13
2019-03-28T20:30:33.977Z,8.10
2019-03-28T20:33:03.349Z,7.95
2019-03-28T20:35:32.928Z,6.72
2019-03-28T20:38:02.295Z,8.50
2019-03-28T20:40:31.702Z,8.25
2019-03-28T20:43:01.191Z,6.87
2019-03-28T20:45:30.546Z,7.42
2019-03-28T20:47:59.919Z,7.42
2019-03-28T20:50:31.677Z,7.05
2019-03-28T20:53:00.561Z,8.38
2019-03-28T20:55:29.927Z,8.73
2019-03-28T20:57:59.908Z,7.47
2019-03-28T21:00:42.180Z,7.37
2019-03-28T21:03:11.613Z,8.03
2019-03-28T21:05:40.980Z,7.42
2019-03-28T21:08:10.410Z,7.00
2019-03-28T21:10:39.794Z,7.20
2019-03-28T21:13:09.807Z,7.25
2019-03-28T21:15:39.420Z,6.17
2019-03-28T21:18:09.076Z,6.40
2019-03-28T21:20:38.440Z,7.28
2019-03-28T21:23:07.815Z,8.63
2019-03-28T21:25:37.261Z,5.92
2019-03-28T21:28:07.709Z,6.28
2019-03-28T21:30:47.197Z,8.15
2019-03-28T21:33:08.231Z,8.73
2019-03-28T21:35:38.992Z,6.90
2019-03-28T21:38:08.699Z,7.45
2019-03-28T21:40:38.351Z,9.03
2019-03-28T21:43:07.723Z,7.75
2019-03-28T21:45:37.189Z,7.05
2019-03-28T21:48:06.577Z,8.55
2019-03-28T21:50:35.945Z,8.68
2019-03-28T21:53:05.335Z,9.58
2019-03-28T21:55:34.862Z,9.65
2019-03-28T21:58:05.021Z,9.20
2019-03-28T22:00:34.544Z,8.68
2019-03-28T22:03:04.125Z,7.35
2019-03-28T22:05:33.506Z,7.30
2019-03-28T22:08:02.875Z,8.00
2019-03-28T22:10:32.279Z,7.70
2019-03-28T22:13:01.647Z,6.72
2019-03-28T22:15:31.708Z,5.65
2019-03-28T22:18:01.181Z,7.75
2019-03-28T22:20:30.566Z,6.95
2019-03-28T22:22:59.941Z,6.70
2019-03-28T22:25:29.606Z,7.45
2019-03-28T22:27:58.978Z,10.30
2019-03-28T22:30:29.091Z,7.12
2019-03-28T22:32:58.509Z,8.13
2019-03-28T22:35:28.127Z,6.55
2019-03-28T22:37:57.490Z,8.45
2019-03-28T22:40:27.012Z,7.90
2019-03-28T22:42:56.366Z,7.17
2019-03-28T22:45:25.742Z,6.75
2019-03-28T22:47:55.186Z,8.80
2019-03-28T22:50:24.557Z,11.17
2019-03-28T22:52:53.940Z,11.35
2019-03-28T22:55:23.327Z,11.43
2019-03-28T22:57:54.176Z,13.15
2019-03-28T23:00:25.192Z,10.17
2019-03-28T23:02:54.922Z,12.05
2019-03-28T23:05:24.449Z,11.80
2019-03-28T23:07:53.824Z,12.25
2019-03-28T23:10:23.659Z,13.90
2019-03-28T23:12:53.060Z,14.23
2019-03-28T23:15:22.459Z,14.27
2019-03-28T23:17:51.871Z,17.07
2019-03-28T23:20:21.258Z,16.07
2019-03-28T23:22:50.637Z,12.70
2019-03-28T23:25:20.041Z,15.60
2019-03-28T23:27:49.415Z,14.50
2019-03-28T23:30:18.862Z,14.67
2019-03-28T23:32:49.370Z,15.83
2019-03-28T23:35:18.750Z,14.90
2019-03-28T23:37:48.125Z,17.77
2019-03-28T23:40:17.510Z,14.90
2019-03-28T23:42:46.882Z,14.35
2019-03-28T23:45:16.263Z,16.57
2019-03-28T23:47:45.653Z,15.72
2019-03-28T23:50:15.052Z,14.93
2019-03-28T23:52:44.420Z,19.67
2019-03-28T23:55:14.129Z,17.72
2019-03-28T23:57:43.503Z,17.07
